NCAR-RAP Real-Time Weather Data

Output produced by METARs form (12 May 2021  11:22 UTC)
found at http://weather.rap.ucar.edu/surface/
 
KALS 121052Z AUTO 00000KT 10SM BKN120 M03/M04 A3028 RMK AO2 SLP216 T10281039
KALS 120952Z AUTO 00000KT 10SM FEW110 M03/M04 A3026 RMK AO2 SLP206 T10331044
KALS 120852Z AUTO 08005KT 10SM CLR M02/M04 A3025 RMK AO2 SLP204 T10171039 50005
KALS 120752Z AUTO 17004KT 10SM CLR M02/M04 A3025 RMK AO2 SLP211 T10221039
KALS 120652Z AUTO 00000KT 10SM CLR M01/M03 A3023 RMK AO2 SLP205 T10061033 401891011
KALS 120552Z AUTO 16003KT 10SM CLR 00/M03 A3023 RMK AO2 SLP210 T00001033 10167 21006 51013
KALS 120452Z AUTO 26003KT 10SM CLR 01/M03 A3022 RMK AO2 SLP210 T00111028
KALS 120352Z AUTO 11005KT 10SM CLR 02/M02 A3021 RMK AO2 SLP210 T00221022
KALS 120252Z AUTO 11011KT 10SM CLR 04/M02 A3018 RMK AO2 SLP200 T00391022 53031
KALS 120152Z AUTO 12012KT 10SM FEW110 06/M02 A3015 RMK AO2 SLP183 T00611017
KALS 120052Z AUTO 03015G22KT 10SM CLR 13/M09 A3010 RMK AO2 SLP148 T01281094
KALS 112352Z AUTO 03013G22KT 10SM CLR 17/M08 A3007 RMK AO2 PK WND 36026/2302 SLP129 T01671083 10189 20094 53009
KALS 112252Z AUTO 35010G20KT 10SM BKN110 16/M08 A3003 RMK AO2 PK WND 23034/2203 SLP116 T01611078
KALS 112152Z AUTO 25017G35KT 10SM FEW110 18/M12 A3002 RMK AO2 PK WND 24035/2145 SLP105 T01831117
KALS 112052Z AUTO 10SM CLR 16/M04 A3003 RMK AO2 SLP117 T01611039 56020